Terminal Aerodrome Forecast
Issued by NWS Cleveland, OH

Home | Current Version | Previous Version | Graphics & Text | Print | Product List | Glossary On
Versions: 1 2 3 4 5 6 7 8 9 10 11 12 13 14 15 16 17 18 19
000
FTUS41 KCLE 271133
TAFTOL
TAF
KTOL 271133Z 2712/2812 02012G20KT 6SM -RA BR BKN015
      TEMPO 2712/2713 3SM RA BR OVC007
     FM272100 35025G35KT 6SM -SHRA SCT007 OVC015
     FM280900 31012KT 6SM -SHRA BR OVC015=

USA.gov is the U.S. government's official web portal to all federal, state and local government web resources and services.